Elkhart Lake, Wisconsin
Current Conditions -  °F | °C
As of 11:53 PM on Monday 26 Jan 2015 (Local Time) from KSBM Reporting Station
Overcast Overcast  
Wind Chill: -6°   Ceiling: 1800
Heat Index: -3°   Visibility: 10mi
Dew Point: -6°   Wind: 5mph
Humidity: 84%   Direction: 130°SE
Pressure: 29.94"   Gusts: NA
Location:  43.83°N, 88.02°W
Report Text: KSBM 270553Z AUTO 13004KT 10SM OVC018 M03/M06 A2994 RMK AO2 SNE45 SLP149 P0001 60002 T10331056 11033 21039 410281122 53008
Loading
Personal Weather Stations






























Interactive Weather Map New forecast layout! Learn more

10-Day Weather Forecast

Advertisements
Track Severe Weather on mobile